Time;durP1;ratioP1;P1;durP2;ratioP2;P2;SDS_P1;SDS_P2;PMS_P1;PMS_P2;Temp;Humidity;BMP_temperature;BMP_pressure;BME280_temperature;BME280_humidity;BME280_pressure;Samples;Min_cycle;Max_cycle;Signal;HPM_P1;HPM_P2
2023/10/22 00:02:20;;;;;;;429.90;178.07;;;;;;;;;;5038102;28;20601;-51
2023/10/22 00:04:46;;;;;;;567.37;265.33;;;;;;;;;;5022797;28;20344;-52
2023/10/22 00:07:16;;;;;;;481.73;196.87;;;;;;;;;;5031533;28;20314;-51
2023/10/22 00:09:43;;;;;;;443.20;182.17;;;;;;;;;;5031169;28;20219;-51
2023/10/22 00:12:10;;;;;;;499.10;209.60;;;;;;;;;;5028178;28;20274;-51
2023/10/22 00:14:37;;;;;;;479.63;207.63;;;;;;;;;;5019718;28;20795;-50
2023/10/22 00:17:03;;;;;;;489.83;212.60;;;;;;;;;;5016406;28;20283;-51
2023/10/22 00:19:29;;;;;;;440.27;181.17;;;;;;;;;;5031510;28;20595;-51
2023/10/22 00:21:55;;;;;;;508.30;221.03;;;;;;;;;;5025771;28;20592;-51
2023/10/22 00:24:21;;;;;;;486.80;204.47;;;;;;;;;;5028227;28;20512;-51
2023/10/22 00:26:47;;;;;;;498.50;206.17;;;;;;;;;;5029048;28;20184;-51
2023/10/22 00:29:13;;;;;;;473.90;199.17;;;;;;;;;;5028584;28;20692;-50
2023/10/22 00:31:39;;;;;;;484.63;210.70;;;;;;;;;;5016562;28;20245;-52
2023/10/22 00:34:04;;;;;;;455.53;193.77;;;;;;;;;;5017980;28;20267;-51
2023/10/22 00:36:30;;;;;;;511.13;221.60;;;;;;;;;;5012721;28;20264;-51
2023/10/22 00:38:56;;;;;;;517.30;238.33;;;;;;;;;;5019984;28;20222;-51
2023/10/22 00:41:22;;;;;;;509.23;218.27;;;;;;;;;;5021097;28;21061;-51
2023/10/22 00:43:48;;;;;;;508.23;215.83;;;;;;;;;;5017807;28;20211;-51
2023/10/22 00:46:19;;;;;;;494.03;204.63;;;;;;;;;;5018932;28;20302;-51
2023/10/22 00:48:46;;;;;;;470.00;193.50;;;;;;;;;;5018659;28;20294;-51
2023/10/22 00:51:12;;;;;;;529.03;227.40;;;;;;;;;;5022056;28;20729;-51
2023/10/22 00:53:37;;;;;;;495.97;224.83;;;;;;;;;;5021555;28;20184;-51
2023/10/22 00:56:05;;;;;;;492.20;219.20;;;;;;;;;;5030397;28;20251;-50
2023/10/22 00:58:32;;;;;;;459.30;195.07;;;;;;;;;;5023874;28;20289;-51
2023/10/22 01:00:58;;;;;;;551.97;249.70;;;;;;;;;;5010568;28;20220;-50
2023/10/22 01:03:24;;;;;;;477.67;197.87;;;;;;;;;;5031192;28;20318;-51
2023/10/22 01:05:50;;;;;;;482.53;209.83;;;;;;;;;;5018374;28;20233;-51
2023/10/22 01:08:16;;;;;;;476.30;194.77;;;;;;;;;;5019591;28;20298;-51
2023/10/22 01:10:42;;;;;;;485.70;207.70;;;;;;;;;;5016886;28;20234;-51
2023/10/22 01:13:08;;;;;;;453.57;189.63;;;;;;;;;;5021655;28;20747;-51
2023/10/22 01:15:34;;;;;;;455.30;189.93;;;;;;;;;;5020827;28;20867;-50
2023/10/22 01:18:00;;;;;;;514.97;222.77;;;;;;;;;;5021960;28;20205;-51
2023/10/22 01:20:26;;;;;;;483.60;197.27;;;;;;;;;;5013362;28;20290;-51
2023/10/22 01:22:52;;;;;;;531.10;231.67;;;;;;;;;;5016924;28;20313;-51
2023/10/22 01:25:18;;;;;;;498.27;213.23;;;;;;;;;;5019495;28;20306;-50
2023/10/22 01:27:45;;;;;;;504.63;222.70;;;;;;;;;;5026912;28;20267;-51
2023/10/22 01:30:11;;;;;;;487.03;210.17;;;;;;;;;;5017671;28;20575;-51
2023/10/22 01:32:37;;;;;;;538.23;237.93;;;;;;;;;;5013624;28;20192;-50
2023/10/22 01:35:03;;;;;;;484.60;208.07;;;;;;;;;;5025199;28;20507;-51
2023/10/22 01:37:29;;;;;;;541.53;237.40;;;;;;;;;;5013448;28;20219;-51
2023/10/22 01:39:57;;;;;;;491.53;213.40;;;;;;;;;;5036817;22;20230;-81
2023/10/22 01:42:23;;;;;;;471.00;202.43;;;;;;;;;;5049226;28;20223;-83
2023/10/22 01:44:49;;;;;;;465.40;197.00;;;;;;;;;;5054745;28;20233;-84
2023/10/22 01:47:15;;;;;;;450.63;183.63;;;;;;;;;;5049844;28;20475;-81
2023/10/22 01:49:41;;;;;;;401.13;160.27;;;;;;;;;;5056770;28;20206;-81
2023/10/22 01:52:07;;;;;;;448.63;189.23;;;;;;;;;;5052734;28;20636;-84
2023/10/22 01:54:33;;;;;;;420.67;170.60;;;;;;;;;;5058203;28;20782;-81
2023/10/22 01:56:59;;;;;;;478.77;199.40;;;;;;;;;;5050111;28;20275;-81
2023/10/22 01:59:25;;;;;;;462.93;188.57;;;;;;;;;;5058470;28;20634;-81
2023/10/22 02:01:51;;;;;;;476.93;192.40;;;;;;;;;;5055278;28;20206;-82
2023/10/22 02:04:17;;;;;;;442.10;176.97;;;;;;;;;;5064710;28;20981;-84
2023/10/22 02:06:43;;;;;;;461.97;194.00;;;;;;;;;;5052202;28;20275;-82
2023/10/22 02:09:09;;;;;;;455.27;187.47;;;;;;;;;;5057844;28;20179;-81
2023/10/22 02:11:35;;;;;;;420.47;169.30;;;;;;;;;;5052242;28;20174;-80
2023/10/22 02:14:01;;;;;;;476.10;199.23;;;;;;;;;;5050733;28;20225;-81
2023/10/22 02:16:27;;;;;;;462.60;187.33;;;;;;;;;;5059473;28;20218;-81
2023/10/22 02:18:53;;;;;;;464.90;193.67;;;;;;;;;;5057755;28;20219;-84
2023/10/22 02:21:23;;;;;;;455.00;185.47;;;;;;;;;;5054644;28;20991;-82
2023/10/22 02:23:49;;;;;;;436.77;177.47;;;;;;;;;;5050999;28;20183;-82
2023/10/22 02:26:15;;;;;;;445.83;181.40;;;;;;;;;;5052706;28;20277;-82
2023/10/22 02:28:41;;;;;;;486.03;200.50;;;;;;;;;;5052940;28;20922;-83
2023/10/22 02:31:07;;;;;;;456.23;187.50;;;;;;;;;;5057479;28;20224;-81
2023/10/22 02:33:33;;;;;;;442.50;175.30;;;;;;;;;;5057240;28;20239;-81
2023/10/22 02:35:59;;;;;;;466.30;193.67;;;;;;;;;;5056027;28;20219;-84
2023/10/22 02:38:24;;;;;;;443.30;177.23;;;;;;;;;;5056544;28;20218;-83
2023/10/22 02:40:50;;;;;;;455.40;185.33;;;;;;;;;;5060093;28;20218;-81
2023/10/22 02:43:17;;;;;;;472.73;196.57;;;;;;;;;;5055329;28;20211;-81
2023/10/22 02:45:49;;;;;;;455.93;192.47;;;;;;;;;;5050570;28;20223;-81
2023/10/22 02:48:15;;;;;;;426.67;173.73;;;;;;;;;;5057264;28;20186;-81
2023/10/22 02:50:41;;;;;;;469.37;196.87;;;;;;;;;;5054717;28;20263;-80
2023/10/22 02:53:07;;;;;;;469.10;192.50;;;;;;;;;;5057391;28;20224;-81
2023/10/22 02:55:33;;;;;;;464.60;190.80;;;;;;;;;;5052433;28;20230;-84
2023/10/22 02:57:59;;;;;;;472.83;193.63;;;;;;;;;;5062237;28;20229;-83
2023/10/22 03:00:25;;;;;;;418.60;168.67;;;;;;;;;;5054964;28;20286;-83
2023/10/22 03:02:51;;;;;;;466.03;195.87;;;;;;;;;;5061125;28;20188;-84
2023/10/22 03:05:17;;;;;;;463.17;191.00;;;;;;;;;;5057219;28;20925;-84
2023/10/22 03:07:43;;;;;;;445.13;183.33;;;;;;;;;;5061345;28;20225;-84
2023/10/22 03:10:12;;;;;;;462.87;190.37;;;;;;;;;;5073116;28;20214;-80
2023/10/22 03:12:38;;;;;;;456.70;191.50;;;;;;;;;;5061285;28;20241;-82
2023/10/22 03:15:04;;;;;;;457.30;193.77;;;;;;;;;;5056269;28;20431;-81
2023/10/22 03:17:30;;;;;;;408.67;165.40;;;;;;;;;;5066781;28;20257;-82
2023/10/22 03:19:56;;;;;;;460.80;191.97;;;;;;;;;;5061732;28;20845;-82
2023/10/22 03:22:23;;;;;;;455.67;188.50;;;;;;;;;;5056445;28;20232;-81
2023/10/22 03:24:52;;;;;;;469.20;196.20;;;;;;;;;;5061345;28;20588;-81
2023/10/22 03:27:18;;;;;;;423.93;172.20;;;;;;;;;;5057213;28;20290;-84
2023/10/22 03:29:45;;;;;;;471.57;190.07;;;;;;;;;;5057360;28;20211;-80
2023/10/22 03:32:11;;;;;;;501.53;210.07;;;;;;;;;;5057290;28;20346;-81
2023/10/22 03:34:37;;;;;;;410.80;163.70;;;;;;;;;;5059588;28;20729;-82
2023/10/22 03:37:08;;;;;;;485.93;201.20;;;;;;;;;;5056032;28;20271;-81
2023/10/22 03:39:36;;;;;;;457.43;184.23;;;;;;;;;;5057527;28;20197;-81
2023/10/22 03:42:01;;;;;;;458.33;192.17;;;;;;;;;;5048368;28;20199;-82
2023/10/22 03:44:27;;;;;;;440.17;181.03;;;;;;;;;;5056353;28;20179;-81
2023/10/22 03:46:53;;;;;;;483.00;194.37;;;;;;;;;;5056315;28;20776;-81
2023/10/22 03:49:19;;;;;;;455.33;182.80;;;;;;;;;;5061022;28;20203;-80
2023/10/22 03:51:45;;;;;;;449.27;184.17;;;;;;;;;;5054233;28;20856;-80
2023/10/22 03:54:11;;;;;;;483.23;204.40;;;;;;;;;;5058153;28;20201;-80
2023/10/22 03:56:37;;;;;;;455.50;185.80;;;;;;;;;;5056094;28;20203;-83
2023/10/22 03:59:03;;;;;;;435.13;176.23;;;;;;;;;;5060992;28;20219;-84
2023/10/22 04:01:29;;;;;;;466.23;187.20;;;;;;;;;;5059829;28;20351;-84
2023/10/22 04:03:55;;;;;;;481.17;203.80;;;;;;;;;;5065313;28;20298;-84
2023/10/22 04:06:21;;;;;;;446.60;177.57;;;;;;;;;;5056914;28;20368;-80
2023/10/22 04:08:47;;;;;;;438.83;171.87;;;;;;;;;;5059741;28;20236;-82
2023/10/22 04:11:13;;;;;;;486.33;199.73;;;;;;;;;;5058368;28;20213;-82
2023/10/22 04:13:39;;;;;;;443.43;176.63;;;;;;;;;;5056209;28;20217;-81
2023/10/22 04:16:05;;;;;;;458.17;184.40;;;;;;;;;;5052402;28;20216;-81
2023/10/22 04:18:31;;;;;;;433.70;177.30;;;;;;;;;;5057367;28;20215;-80
2023/10/22 04:20:56;;;;;;;458.73;187.67;;;;;;;;;;5057355;28;22513;-81
2023/10/22 04:23:22;;;;;;;446.60;180.93;;;;;;;;;;5056993;28;20592;-84
2023/10/22 04:25:48;;;;;;;435.43;172.93;;;;;;;;;;5059370;28;20219;-82
2023/10/22 04:28:15;;;;;;;474.77;195.63;;;;;;;;;;5052556;28;20221;-81
2023/10/22 04:30:45;;;;;;;449.90;183.40;;;;;;;;;;5055727;28;20243;-81
2023/10/22 04:33:11;;;;;;;488.03;201.70;;;;;;;;;;5050741;28;20213;-82
2023/10/22 04:35:37;;;;;;;455.93;187.67;;;;;;;;;;5059998;28;20233;-80
2023/10/22 04:38:04;;;;;;;434.27;179.23;;;;;;;;;;5056416;28;20250;-80
2023/10/22 04:40:33;;;;;;;426.93;172.60;;;;;;;;;;5051546;28;20274;-81
2023/10/22 04:42:59;;;;;;;471.37;188.87;;;;;;;;;;5054154;28;20207;-81
2023/10/22 04:45:25;;;;;;;468.27;187.03;;;;;;;;;;5056222;28;20218;-82
2023/10/22 04:47:51;;;;;;;467.53;191.93;;;;;;;;;;5056283;28;20190;-82
2023/10/22 04:50:17;;;;;;;465.93;189.67;;;;;;;;;;5061047;28;20215;-82
2023/10/22 04:52:43;;;;;;;422.73;171.40;;;;;;;;;;5059880;28;20225;-81
2023/10/22 04:55:13;;;;;;;448.57;184.80;;;;;;;;;;5057166;28;20222;-82
2023/10/22 04:57:38;;;;;;;464.03;191.17;;;;;;;;;;5063822;28;20380;-80
2023/10/22 05:00:08;;;;;;;457.03;194.13;;;;;;;;;;5057623;28;20260;-81
2023/10/22 05:02:34;;;;;;;479.67;201.63;;;;;;;;;;5060114;28;20605;-80
2023/10/22 05:05:00;;;;;;;467.73;191.93;;;;;;;;;;5047528;28;20214;-81
2023/10/22 05:07:26;;;;;;;484.27;200.67;;;;;;;;;;5057959;28;20214;-80
2023/10/22 05:09:52;;;;;;;462.73;189.87;;;;;;;;;;5071525;28;20217;-81
2023/10/22 05:12:18;;;;;;;471.33;195.03;;;;;;;;;;5053743;28;20339;-84
2023/10/22 05:14:44;;;;;;;483.83;212.73;;;;;;;;;;5054100;28;20243;-83
2023/10/22 05:17:10;;;;;;;447.93;189.00;;;;;;;;;;5059229;28;20526;-81
2023/10/22 05:19:36;;;;;;;439.93;181.43;;;;;;;;;;5058586;28;20673;-82
2023/10/22 05:22:04;;;;;;;447.80;179.53;;;;;;;;;;5061235;28;20234;-81
2023/10/22 05:24:30;;;;;;;436.90;176.70;;;;;;;;;;5057218;28;20284;-82
2023/10/22 05:26:56;;;;;;;442.97;179.07;;;;;;;;;;5049312;28;20237;-78
2023/10/22 05:29:22;;;;;;;433.20;175.87;;;;;;;;;;5049027;28;20214;-78
2023/10/22 05:31:48;;;;;;;430.87;176.50;;;;;;;;;;5053737;28;20237;-77
2023/10/22 05:34:14;;;;;;;491.00;212.50;;;;;;;;;;5051592;28;20263;-76
2023/10/22 05:36:40;;;;;;;436.00;173.97;;;;;;;;;;5060613;28;20233;-77
2023/10/22 05:39:06;;;;;;;454.03;184.13;;;;;;;;;;5046444;28;20294;-74
2023/10/22 05:41:32;;;;;;;434.70;173.33;;;;;;;;;;5047109;28;20211;-77
2023/10/22 05:44:02;;;;;;;461.30;188.07;;;;;;;;;;5055303;28;20226;-77
2023/10/22 05:46:28;;;;;;;424.97;169.60;;;;;;;;;;5049582;28;20219;-78
2023/10/22 05:48:54;;;;;;;472.53;195.77;;;;;;;;;;5063244;28;20229;-78
2023/10/22 05:51:20;;;;;;;434.90;177.23;;;;;;;;;;5069444;28;20217;-79
2023/10/22 05:53:47;;;;;;;446.43;180.67;;;;;;;;;;5057223;28;20267;-77
2023/10/22 05:56:13;;;;;;;451.53;188.07;;;;;;;;;;5052767;28;20644;-79
2023/10/22 05:58:39;;;;;;;419.40;169.07;;;;;;;;;;5059746;28;20310;-77
2023/10/22 06:01:05;;;;;;;441.93;182.43;;;;;;;;;;5050002;28;20211;-77
2023/10/22 06:03:31;;;;;;;443.83;180.97;;;;;;;;;;5047993;28;20263;-77
2023/10/22 06:05:57;;;;;;;464.33;189.23;;;;;;;;;;5051753;28;20213;-78
2023/10/22 06:08:23;;;;;;;444.97;176.73;;;;;;;;;;5058985;28;20280;-78
2023/10/22 06:10:49;;;;;;;439.63;177.10;;;;;;;;;;5048970;28;20222;-77
2023/10/22 06:13:15;;;;;;;430.63;177.53;;;;;;;;;;5052612;28;20219;-77
2023/10/22 06:15:44;;;;;;;471.33;199.87;;;;;;;;;;5054294;28;20592;-79
2023/10/22 06:18:11;;;;;;;475.50;198.93;;;;;;;;;;5049829;28;20576;-78
2023/10/22 06:20:37;;;;;;;447.47;185.53;;;;;;;;;;5049823;28;20189;-80
2023/10/22 06:23:04;;;;;;;449.53;180.30;;;;;;;;;;5058275;28;20206;-81
2023/10/22 06:25:31;;;;;;;440.70;177.73;;;;;;;;;;5047953;28;20857;-80
2023/10/22 06:27:58;;;;;;;417.97;169.00;;;;;;;;;;5051487;28;20985;-79
2023/10/22 06:30:25;;;;;;;433.07;179.57;;;;;;;;;;5050881;28;20326;-80
2023/10/22 06:32:51;;;;;;;442.87;182.90;;;;;;;;;;5056016;28;20217;-80
2023/10/22 06:35:17;;;;;;;443.23;176.87;;;;;;;;;;5050299;28;20206;-78
2023/10/22 06:37:43;;;;;;;470.17;195.97;;;;;;;;;;5033668;28;20348;-78
2023/10/22 06:40:09;;;;;;;508.10;216.20;;;;;;;;;;5054852;28;20213;-79
2023/10/22 06:42:35;;;;;;;493.83;209.40;;;;;;;;;;5057567;28;20214;-79
2023/10/22 06:45:03;;;;;;;449.53;182.90;;;;;;;;;;5054216;28;20639;-77
2023/10/22 06:47:29;;;;;;;424.53;171.47;;;;;;;;;;5057875;28;20509;-78
2023/10/22 06:49:55;;;;;;;422.80;169.00;;;;;;;;;;5078907;28;20284;-78
2023/10/22 06:52:21;;;;;;;464.43;195.23;;;;;;;;;;5078644;28;20206;-77
2023/10/22 06:54:47;;;;;;;452.73;189.50;;;;;;;;;;5075995;28;20312;-78
2023/10/22 06:57:13;;;;;;;474.10;198.67;;;;;;;;;;5076105;28;20292;-78
2023/10/22 06:59:39;;;;;;;408.97;164.80;;;;;;;;;;5075736;28;20178;-81
2023/10/22 07:02:05;;;;;;;427.37;169.00;;;;;;;;;;5066534;28;20215;-78
2023/10/22 07:04:31;;;;;;;435.50;179.60;;;;;;;;;;5075470;28;20203;-79
2023/10/22 07:06:57;;;;;;;451.23;182.57;;;;;;;;;;5064744;28;20226;-79
2023/10/22 07:09:23;;;;;;;466.97;196.13;;;;;;;;;;5072642;28;20214;-78
2023/10/22 07:11:49;;;;;;;438.33;179.43;;;;;;;;;;5069308;28;20271;-78
2023/10/22 07:14:15;;;;;;;444.90;182.77;;;;;;;;;;5074477;28;20299;-81
2023/10/22 07:16:41;;;;;;;434.87;182.50;;;;;;;;;;5061941;28;20218;-82
2023/10/22 07:19:06;;;;;;;460.53;191.93;;;;;;;;;;5061896;28;20300;-73
2023/10/22 07:21:32;;;;;;;447.57;187.53;;;;;;;;;;5054867;28;20249;-76
2023/10/22 07:23:58;;;;;;;446.57;186.50;;;;;;;;;;5057426;28;20199;-81
2023/10/22 07:26:26;;;;;;;533.60;234.20;;;;;;;;;;5052226;28;20229;-79
2023/10/22 07:28:52;;;;;;;438.73;184.60;;;;;;;;;;5049241;28;20213;-79
2023/10/22 07:31:18;;;;;;;482.83;204.07;;;;;;;;;;5058745;28;20214;-78
2023/10/22 07:33:44;;;;;;;447.30;179.07;;;;;;;;;;5074102;28;20213;-78
2023/10/22 07:36:10;;;;;;;488.07;205.43;;;;;;;;;;5059963;28;20209;-82
2023/10/22 07:38:38;;;;;;;451.50;184.60;;;;;;;;;;5049059;28;20584;-78
2023/10/22 07:41:04;;;;;;;434.90;176.67;;;;;;;;;;5054826;28;20837;-78
2023/10/22 07:43:30;;;;;;;434.97;178.37;;;;;;;;;;5050544;28;20240;-78
2023/10/22 07:46:00;;;;;;;465.10;199.93;;;;;;;;;;5048869;28;20827;-79
2023/10/22 07:48:26;;;;;;;452.27;189.47;;;;;;;;;;5055740;28;20325;-77
2023/10/22 07:50:52;;;;;;;457.43;193.70;;;;;;;;;;5054610;28;20187;-79
2023/10/22 07:53:18;;;;;;;449.30;187.33;;;;;;;;;;5050420;28;20207;-77
2023/10/22 07:55:45;;;;;;;426.83;174.23;;;;;;;;;;5055943;28;20211;-78
2023/10/22 07:58:11;;;;;;;475.50;204.67;;;;;;;;;;5053018;28;20218;-77
2023/10/22 08:00:37;;;;;;;436.30;177.37;;;;;;;;;;5052105;28;20356;-76
2023/10/22 08:03:03;;;;;;;427.00;178.33;;;;;;;;;;5048464;28;20188;-78
2023/10/22 08:05:31;;;;;;;459.70;197.10;;;;;;;;;;5052127;28;20805;-68
2023/10/22 08:07:57;;;;;;;454.77;186.27;;;;;;;;;;5050574;28;20282;-68
2023/10/22 08:10:23;;;;;;;471.07;196.63;;;;;;;;;;5053590;28;20219;-68
2023/10/22 08:12:49;;;;;;;448.17;190.27;;;;;;;;;;5049833;28;20621;-68
2023/10/22 08:15:15;;;;;;;489.00;207.07;;;;;;;;;;5050556;28;20187;-68
2023/10/22 08:17:41;;;;;;;455.20;194.17;;;;;;;;;;5050435;28;20308;-69
2023/10/22 08:20:07;;;;;;;468.03;196.50;;;;;;;;;;5049093;28;20207;-68
2023/10/22 08:22:33;;;;;;;465.63;197.27;;;;;;;;;;5047482;28;20309;-69
2023/10/22 08:24:59;;;;;;;423.03;172.60;;;;;;;;;;5047439;28;20298;-68
2023/10/22 08:27:25;;;;;;;511.67;223.27;;;;;;;;;;5048929;28;20229;-65
2023/10/22 08:29:51;;;;;;;493.57;207.70;;;;;;;;;;5053284;28;22545;-68
2023/10/22 08:32:16;;;;;;;466.93;197.27;;;;;;;;;;5053813;28;20214;-67
2023/10/22 08:34:42;;;;;;;455.60;189.47;;;;;;;;;;5046641;28;20206;-67
2023/10/22 08:37:08;;;;;;;464.83;194.70;;;;;;;;;;5045117;28;20222;-68
2023/10/22 08:39:34;;;;;;;418.50;175.60;;;;;;;;;;5050514;28;20258;-67
2023/10/22 08:42:07;;;;;;;451.07;192.70;;;;;;;;;;5051586;28;20191;-66
2023/10/22 08:44:34;;;;;;;405.53;169.40;;;;;;;;;;5049701;28;20545;-68
2023/10/22 08:47:00;;;;;;;491.93;213.43;;;;;;;;;;5049656;28;20222;-75
2023/10/22 08:49:27;;;;;;;464.77;199.47;;;;;;;;;;5059981;28;20223;-75
2023/10/22 08:51:53;;;;;;;464.80;198.10;;;;;;;;;;5054359;28;20302;-74
2023/10/22 08:54:22;;;;;;;496.03;218.87;;;;;;;;;;5045027;28;20186;-75
2023/10/22 08:56:48;;;;;;;455.90;197.77;;;;;;;;;;5060065;28;20699;-75
2023/10/22 08:59:14;;;;;;;463.23;201.07;;;;;;;;;;5044560;28;20218;-75
2023/10/22 09:01:40;;;;;;;452.27;198.67;;;;;;;;;;5055497;28;20238;-75
2023/10/22 09:04:06;;;;;;;444.37;185.97;;;;;;;;;;5064248;28;20253;-74
2023/10/22 09:06:31;;;;;;;498.73;222.93;;;;;;;;;;5041613;28;20746;-74
2023/10/22 09:08:57;;;;;;;482.60;209.33;;;;;;;;;;5051552;28;20279;-75
2023/10/22 09:11:24;;;;;;;502.13;223.37;;;;;;;;;;5048149;28;20277;-74
2023/10/22 09:13:50;;;;;;;438.40;184.97;;;;;;;;;;5050237;28;20215;-75
2023/10/22 09:16:29;;;;;;;467.20;201.90;;;;;;;;;;5060571;28;20260;-75
2023/10/22 09:18:55;;;;;;;432.33;178.07;;;;;;;;;;5053355;28;20430;-74
2023/10/22 09:21:21;;;;;;;481.00;209.47;;;;;;;;;;5046949;28;20226;-75
2023/10/22 09:24:07;;;;;;;463.10;196.77;;;;;;;;;;5049867;28;20178;-74
2023/10/22 09:26:43;;;;;;;474.50;197.57;;;;;;;;;;5067248;28;20278;-74
2023/10/22 09:29:08;;;;;;;456.60;192.57;;;;;;;;;;5047928;28;20211;-74
2023/10/22 09:31:35;;;;;;;445.73;193.97;;;;;;;;;;5059903;28;20211;-74
2023/10/22 09:34:01;;;;;;;450.43;190.80;;;;;;;;;;5053090;28;20920;-74
2023/10/22 09:36:27;;;;;;;513.50;232.00;;;;;;;;;;5045811;28;20216;-74
2023/10/22 09:38:53;;;;;;;471.03;208.80;;;;;;;;;;5051819;28;20211;-76
2023/10/22 09:41:25;;;;;;;484.07;211.73;;;;;;;;;;5053180;28;20226;-76
2023/10/22 09:43:51;;;;;;;460.00;196.53;;;;;;;;;;5053234;28;20218;-75
2023/10/22 09:46:21;;;;;;;461.60;195.60;;;;;;;;;;5059834;28;20218;-74
2023/10/22 09:48:48;;;;;;;494.77;215.87;;;;;;;;;;5055796;28;20630;-73
2023/10/22 09:51:15;;;;;;;473.43;212.07;;;;;;;;;;5058793;28;20674;-76
2023/10/22 09:54:02;;;;;;;428.40;181.40;;;;;;;;;;5070956;28;20268;-75
2023/10/22 09:56:29;;;;;;;440.60;189.03;;;;;;;;;;5074473;28;20217;-76
2023/10/22 09:59:08;;;;;;;428.37;177.67;;;;;;;;;;5078985;28;20233;-76
2023/10/22 10:01:36;;;;;;;446.77;191.50;;;;;;;;;;5074949;28;20296;-74
2023/10/22 10:04:05;;;;;;;415.80;172.10;;;;;;;;;;5072317;28;20213;-75
2023/10/22 10:06:31;;;;;;;440.40;190.87;;;;;;;;;;5078774;28;20715;-75
2023/10/22 10:08:58;;;;;;;456.27;195.40;;;;;;;;;;5061950;28;20195;-75
2023/10/22 10:11:25;;;;;;;460.60;197.93;;;;;;;;;;5071452;28;20835;-75
2023/10/22 10:13:51;;;;;;;411.43;171.10;;;;;;;;;;5043040;28;20738;-75
2023/10/22 10:16:17;;;;;;;462.70;197.10;;;;;;;;;;5064046;28;20210;-75
2023/10/22 10:19:01;;;;;;;447.10;195.87;;;;;;;;;;5056348;28;20316;-75
2023/10/22 10:21:38;;;;;;;470.10;205.60;;;;;;;;;;5062669;28;20211;-75
2023/10/22 10:24:16;;;;;;;447.90;196.73;;;;;;;;;;5057128;28;20565;-75
2023/10/22 10:26:43;;;;;;;410.73;175.17;;;;;;;;;;5054908;28;20305;-74
2023/10/22 10:29:13;;;;;;;477.87;215.77;;;;;;;;;;5044199;28;20653;-74
2023/10/22 10:31:39;;;;;;;463.03;201.93;;;;;;;;;;5049539;28;20228;-74
2023/10/22 10:34:05;;;;;;;432.43;186.70;;;;;;;;;;5046173;28;20699;-74
2023/10/22 10:36:32;;;;;;;488.97;216.40;;;;;;;;;;5044867;28;20640;-73
2023/10/22 10:39:16;;;;;;;443.57;193.53;;;;;;;;;;5046677;28;20747;-75
2023/10/22 10:41:52;;;;;;;431.50;178.63;;;;;;;;;;5061680;28;20461;-74
2023/10/22 10:44:18;;;;;;;455.43;196.03;;;;;;;;;;5045903;28;21858;-77
2023/10/22 10:46:44;;;;;;;490.23;218.63;;;;;;;;;;5050005;28;20255;-73
2023/10/22 10:49:10;;;;;;;451.00;192.37;;;;;;;;;;5046178;28;20599;-78
2023/10/22 10:51:36;;;;;;;513.50;235.17;;;;;;;;;;5049284;28;20240;-73
2023/10/22 10:54:07;;;;;;;481.10;212.67;;;;;;;;;;5041720;28;21968;-76
2023/10/22 10:56:52;;;;;;;473.23;206.67;;;;;;;;;;5049530;28;20226;-77
2023/10/22 10:59:27;;;;;;;459.90;195.40;;;;;;;;;;5047330;28;20222;-76
2023/10/22 11:02:00;;;;;;;454.40;197.93;;;;;;;;;;5054869;28;20232;-74
2023/10/22 11:04:26;;;;;;;445.90;190.07;;;;;;;;;;5052323;28;20210;-78
2023/10/22 11:06:52;;;;;;;444.00;194.03;;;;;;;;;;5047014;28;20221;-77
2023/10/22 11:09:18;;;;;;;485.30;220.50;;;;;;;;;;5051098;28;21547;-78
2023/10/22 11:12:03;;;;;;;474.03;212.40;;;;;;;;;;5060039;28;20283;-79
2023/10/22 11:14:29;;;;;;;452.70;196.03;;;;;;;;;;5048683;28;20212;-76
2023/10/22 11:16:56;;;;;;;453.27;195.30;;;;;;;;;;5060474;28;20298;-75
2023/10/22 11:19:23;;;;;;;492.07;222.33;;;;;;;;;;5047784;28;20352;-74
2023/10/22 11:21:49;;;;;;;449.00;192.37;;;;;;;;;;5046701;28;20222;-79
2023/10/22 11:24:15;;;;;;;438.80;189.97;;;;;;;;;;5053017;28;20773;-77
2023/10/22 11:26:42;;;;;;;458.03;199.10;;;;;;;;;;5050785;28;20223;-77
2023/10/22 11:29:08;;;;;;;427.03;187.00;;;;;;;;;;5057304;28;20666;-76
2023/10/22 11:31:34;;;;;;;474.13;216.83;;;;;;;;;;5061691;28;20231;-76
2023/10/22 11:34:15;;;;;;;462.43;207.10;;;15.50;99.90;;;;;;5065423;28;20727;-77
2023/10/22 11:36:41;;;;;;;368.40;168.83;;;;;;;;;;5064423;28;20225;-75
2023/10/22 11:39:20;;;;;;;451.70;200.47;;;15.50;93.60;;;;;;5049482;28;20207;-75
2023/10/22 11:41:51;;;;;;;451.90;200.20;;;15.70;99.90;;;;;;5052393;28;20245;-75
2023/10/22 11:44:34;;;;;;;451.50;198.93;;;15.70;97.30;;;;;;5056441;28;20276;-75
2023/10/22 11:47:21;;;;;;;431.53;184.57;;;15.70;95.90;;;;;;5051135;28;20226;-75
2023/10/22 11:49:47;;;;;;;450.47;192.07;;;;;;;;;;5061757;28;20218;-75
2023/10/22 11:52:34;;;;;;;441.37;193.83;;;15.50;99.90;;;;;;5054906;28;20282;-77
2023/10/22 11:55:00;;;;;;;415.67;179.43;;;;;;;;;;5047281;28;20208;-75
2023/10/22 11:57:26;;;;;;;511.37;238.10;;;;;;;;;;5046392;28;20782;-75
2023/10/22 11:59:52;;;;;;;460.43;205.60;;;;;;;;;;5050500;28;20190;-75
2023/10/22 12:02:18;;;;;;;449.87;195.67;;;;;;;;;;5054114;28;20217;-79
2023/10/22 12:04:44;;;;;;;467.30;217.67;;;;;;;;;;5054188;28;20293;-76
2023/10/22 12:07:10;;;;;;;430.23;192.60;;;;;;;;;;5060191;28;20736;-76
2023/10/22 12:09:36;;;;;;;459.50;211.63;;;;;;;;;;5047773;28;20222;-76
2023/10/22 12:12:05;;;;;;;447.03;200.70;;;;;;;;;;5061173;28;20259;-76
2023/10/22 12:14:30;;;;;;;488.27;225.30;;;;;;;;;;5051290;28;20274;-76
2023/10/22 12:16:57;;;;;;;431.80;188.10;;;;;;;;;;5050587;28;20225;-76
2023/10/22 12:19:23;;;;;;;452.93;202.67;;;;;;;;;;5054118;28;20238;-76
2023/10/22 12:21:49;;;;;;;437.80;195.93;;;;;;;;;;5059703;28;20750;-76
2023/10/22 12:24:15;;;;;;;438.20;202.73;;;;;;;;;;5057565;28;20183;-76
2023/10/22 12:26:41;;;;;;;451.37;205.07;;;;;;;;;;5048683;28;20871;-77
2023/10/22 12:29:07;;;;;;;428.97;192.63;;;;;;;;;;5049317;28;20206;-77
2023/10/22 12:31:33;;;;;;;446.93;203.47;;;;;;;;;;5055781;28;20794;-77
2023/10/22 12:33:59;;;;;;;474.37;217.37;;;;;;;;;;5050815;28;20811;-77
2023/10/22 12:36:25;;;;;;;457.93;206.23;;;;;;;;;;5050228;28;20834;-77
2023/10/22 12:38:54;;;;;;;431.47;192.07;;;19.60;77.00;;;;;;5057284;28;20281;-77
2023/10/22 12:41:20;;;;;;;447.73;201.03;;;;;;;;;;5056603;28;20863;-76
2023/10/22 12:43:46;;;;;;;441.90;196.90;;;;;;;;;;5061938;28;20206;-76
2023/10/22 12:46:12;;;;;;;452.03;204.37;;;;;;;;;;5046750;28;20238;-77
2023/10/22 12:48:38;;;;;;;462.93;212.40;;;;;;;;;;5058633;28;20215;-77
2023/10/22 12:51:04;;;;;;;464.13;211.40;;;;;;;;;;5048623;28;20224;-76
2023/10/22 12:53:30;;;;;;;430.37;192.03;;;15.70;82.00;;;;;;5060460;28;20186;-77
2023/10/22 12:55:57;;;;;;;450.70;205.20;;;;;;;;;;5051604;28;20252;-76
2023/10/22 12:58:23;;;;;;;427.83;192.07;;;15.60;86.30;;;;;;5057552;28;21101;-77
2023/10/22 13:00:49;;;;;;;450.40;206.63;;;;;;;;;;5051048;28;20222;-77
2023/10/22 13:03:15;;;;;;;446.50;202.07;;;;;;;;;;5052188;28;20278;-77
2023/10/22 13:05:41;;;;;;;461.43;212.43;;;15.60;91.20;;;;;;5045876;28;20206;-77
2023/10/22 13:08:09;;;;;;;429.73;192.33;;;15.80;90.30;;;;;;5056893;28;20256;-77
2023/10/22 13:10:35;;;;;;;442.93;204.67;;;;;;;;;;5050212;28;20222;-77
2023/10/22 13:13:01;;;;;;;433.27;196.07;;;;;;;;;;5047565;28;20579;-77
2023/10/22 13:15:26;;;;;;;435.37;195.37;;;;;;;;;;5064348;28;20217;-77
2023/10/22 13:17:53;;;;;;;456.43;211.63;;;;;;;;;;5074307;28;20217;-78
2023/10/22 13:20:19;;;;;;;427.43;197.07;;;;;;;;;;5074912;28;20214;-77
2023/10/22 13:22:45;;;;;;;441.77;205.07;;;;;;;;;;5072411;28;20267;-77
2023/10/22 13:25:11;;;;;;;427.20;195.23;;;;;;;;;;5076687;28;20707;-77
2023/10/22 13:27:37;;;;;;;484.20;231.97;;;;;;;;;;5050645;28;20217;-78
2023/10/22 13:30:04;;;;;;;438.43;201.13;;;;;;;;;;5056426;28;20178;-79
2023/10/22 13:32:30;;;;;;;458.33;223.23;;;;;;;;;;5056588;28;20305;-79
2023/10/22 13:34:56;;;;;;;495.30;237.20;;;;;;;;;;5053335;28;20649;-79
2023/10/22 13:37:22;;;;;;;429.67;196.73;;;;;;;;;;5056931;28;20213;-79
2023/10/22 13:39:48;;;;;;;446.23;218.47;;;;;;;;;;5047187;28;20322;-79
2023/10/22 13:42:15;;;;;;;457.80;225.47;;;;;;;;;;5056919;28;20194;-79
2023/10/22 13:44:43;;;;;;;497.13;253.67;;;;;;;;;;5059124;28;20198;-79
2023/10/22 13:47:10;;;;;;;439.97;221.77;;;;;;;;;;5057244;28;21041;-80
2023/10/22 13:49:40;;;;;;;467.73;249.60;;;;;;;;;;5059452;28;20210;-80